Beaufort MCAS - Merritt Field Beaufort US
ICAO: KNBC
IATA: NBC
Category: Medium
Scheduled Services: No

Elevation: 37 ft
TransAlt. 18000 ft.

Airport Communications:
APP/DEP:118.45
ATIS:27.8
GND/CLNC DEL:128.15
BASE OPS:28.18
PMSV METRO:26.45
TWR:119.05

KNBC Zoom In..

Runways:

(A) RW 05 length 12202 ft width 200 ft
---- / hdg 47

(B) RW 14 length 7999 ft width 200 ft
---- / hdg 140

(C) RW 23 length 12202 ft width 200 ft
---- / hdg 227

(D) RW 32 length 7999 ft width 200 ft
---- / hdg 320

Location; KNBC
Day. 22 / Time. 03.56 Zulu
* Altimeter: 30.24
* Temperature: 06° c. 42.8°f.
* Wind from: 000° Speed 00 kn.
Dewpoint: 04° c.
Visibility: 10 Statute Miles.
Clouds: Clear (automated report).

KNBC 220356Z AUTO 00000KT 10SM CLR 06/04 A3024 RMK AO2 SLP239 T00610044 $


Wind - Calm.

jpsM music video
CHECK IT OUT

jpsM - It Moves..

 
jpsmedia.com for Web Design  worldairports.se 2018   terms of use